Time;durP1;ratioP1;P1;durP2;ratioP2;P2;SDS_P1;SDS_P2;PMS_P1;PMS_P2;Temp;Humidity;BMP_temperature;BMP_pressure;BME280_temperature;BME280_humidity;BME280_pressure;Samples;Min_cycle;Max_cycle;Signal;HPM_P1;HPM_P2
2023/10/09 00:03:56;;;;;;;1999.90;999.90;;;14.00;99.90;;;;;;5035247;28;20118;-71
2023/10/09 00:06:30;;;;;;;1999.90;999.90;;;14.00;99.90;;;;;;5046544;28;20135;-70
2023/10/09 00:08:58;;;;;;;1999.90;999.90;;;14.00;99.90;;;;;;5047742;28;20444;-70
2023/10/09 00:11:29;;;;;;;1999.90;999.90;;;14.00;99.90;;;;;;5048565;28;20110;-70
2023/10/09 00:13:58;;;;;;;1999.90;999.90;;;14.00;99.90;;;;;;5048752;28;20733;-70
2023/10/09 00:16:35;;;;;;;1999.90;999.90;;;14.00;99.90;;;;;;5031603;28;20037;-71
2023/10/09 00:19:20;;;;;;;1999.90;999.90;;;14.00;99.90;;;;;;5047433;28;20040;-71
2023/10/09 00:21:47;;;;;;;1999.90;999.90;;;14.00;99.90;;;;;;5054239;28;20055;-70
2023/10/09 00:24:14;;;;;;;1999.90;999.90;;;14.00;99.90;;;;;;5048730;28;20052;-71
2023/10/09 00:26:46;;;;;;;1999.90;999.90;;;14.00;99.90;;;;;;5048671;28;20049;-71
2023/10/09 00:29:22;;;;;;;1999.90;999.90;;;14.00;99.90;;;;;;5031340;28;20405;-70
2023/10/09 00:32:01;;;;;;;1999.90;999.90;;;14.00;99.90;;;;;;5039797;28;20106;-71
2023/10/09 00:34:29;;;;;;;1999.90;999.90;;;14.00;99.90;;;;;;5053388;28;20085;-71
2023/10/09 00:36:55;;;;;;;1999.90;999.90;;;14.00;99.90;;;;;;5046910;28;20073;-70
2023/10/09 00:40:19;;;;;;;1999.90;999.90;;;14.00;99.90;;;;;;5024692;28;20456;-70
2023/10/09 00:42:08;;;;;;;1999.90;999.90;;;14.00;99.90;;;;;;5036372;28;20061;-70
2023/10/09 00:44:42;;;;;;;1999.90;999.90;;;14.00;99.90;;;;;;5046857;28;20124;-71
2023/10/09 00:47:21;;;;;;;1999.90;999.90;;;14.00;99.90;;;;;;5046807;28;20037;-71
2023/10/09 00:50:09;;;;;;;1999.90;999.90;;;14.00;99.90;;;;;;5042513;28;20056;-71
2023/10/09 00:52:39;;;;;;;1999.90;999.90;;;14.00;99.90;;;;;;5046863;28;20768;-71
2023/10/09 00:55:13;;;;;;;1999.90;999.90;;;14.00;99.90;;;;;;5047622;28;20124;-71
2023/10/09 00:57:56;;;;;;;1999.90;999.90;;;14.00;99.90;;;;;;5049229;28;20044;-71
2023/10/09 01:00:45;;;;;;;1999.90;999.90;;;14.00;99.90;;;;;;5047604;28;20072;-71
2023/10/09 01:05:51;;;;;;;1999.90;999.90;;;14.00;99.90;;;;;;5043190;28;20080;-71
2023/10/09 01:08:28;;;;;;;1999.90;999.90;;;14.10;99.90;;;;;;5046006;28;20401;-71
2023/10/09 01:10:56;;;;;;;1999.90;999.90;;;14.10;99.90;;;;;;5041031;28;20036;-71
2023/10/09 01:13:28;;;;;;;1999.90;999.90;;;14.10;99.90;;;;;;5030776;28;20044;-70
2023/10/09 01:15:57;;;;;;;1999.90;999.90;;;14.00;99.90;;;;;;5038842;28;20072;-71
2023/10/09 01:18:31;;;;;;;1999.90;999.90;;;14.10;99.90;;;;;;5063910;28;20493;-71
2023/10/09 01:20:57;;;;;;;1999.90;999.90;;;14.10;99.90;;;;;;5029449;28;20045;-70
2023/10/09 01:23:23;;;;;;;1999.90;999.90;;;14.00;99.90;;;;;;5047575;28;20097;-70
2023/10/09 01:25:49;;;;;;;1999.90;999.90;;;14.00;99.90;;;;;;5030736;28;20070;-70
2023/10/09 01:28:16;;;;;;;1999.90;999.90;;;14.10;99.90;;;;;;5047325;28;20068;-70
2023/10/09 01:30:43;;;;;;;1999.90;999.90;;;14.00;99.90;;;;;;5044112;28;20406;-71
2023/10/09 01:33:21;;;;;;;1999.90;999.90;;;14.10;99.90;;;;;;5046091;28;20045;-71
2023/10/09 01:35:48;;;;;;;1999.90;999.90;;;14.00;99.90;;;;;;5047251;28;20049;-71
2023/10/09 01:38:15;;;;;;;1999.90;999.90;;;14.00;99.90;;;;;;5047388;28;20044;-70
2023/10/09 01:40:41;;;;;;;1999.90;999.90;;;14.00;99.90;;;;;;5049909;28;20037;-70
2023/10/09 01:43:18;;;;;;;1999.90;999.90;;;14.00;99.90;;;;;;5046179;28;20056;-70
2023/10/09 01:45:46;;;;;;;1999.90;999.90;;;14.00;99.90;;;;;;5057638;28;20052;-71
2023/10/09 01:48:14;;;;;;;1999.90;999.90;;;14.00;99.90;;;;;;5047880;28;20056;-71
2023/10/09 01:50:42;;;;;;;1999.90;999.90;;;13.90;99.90;;;;;;5047087;28;20032;-71
2023/10/09 01:53:17;;;;;;;1999.90;999.90;;;13.90;99.90;;;;;;5046515;28;20048;-71
2023/10/09 01:55:45;;;;;;;1999.90;999.90;;;13.90;99.90;;;;;;5054882;28;20052;-71
2023/10/09 02:00:49;;;;;;;1999.90;999.90;;;13.90;99.90;;;;;;5046424;28;20052;-71
2023/10/09 02:03:15;;;;;;;1999.90;999.90;;;13.90;99.90;;;;;;5047296;28;20049;-71
2023/10/09 02:05:44;;;;;;;1999.90;999.90;;;13.90;99.90;;;;;;5046413;28;20757;-70
2023/10/09 02:08:13;;;;;;;1999.90;999.90;;;14.00;99.90;;;;;;5051100;28;20120;-70
2023/10/09 02:10:39;;;;;;;1999.90;999.90;;;14.00;99.90;;;;;;5049863;28;20041;-70
2023/10/09 02:13:06;;;;;;;1999.90;999.90;;;13.90;99.90;;;;;;5050592;28;20131;-71
2023/10/09 02:18:18;;;;;;;1999.90;999.90;;;14.00;99.90;;;;;;5047613;28;20451;-71
2023/10/09 02:23:38;;;;;;;1999.90;999.90;;;14.00;99.90;;;;;;5049191;28;20057;-71
2023/10/09 02:26:09;;;;;;;1999.90;999.90;;;14.10;99.90;;;;;;5033647;28;20029;-70
2023/10/09 02:28:35;;;;;;;1999.90;999.90;;;14.10;99.90;;;;;;5053869;28;20065;-70
2023/10/09 02:31:09;;;;;;;1999.90;999.90;;;14.10;99.90;;;;;;5048372;28;20798;-71
2023/10/09 02:33:36;;;;;;;1999.90;999.90;;;14.10;99.90;;;;;;5050492;28;20037;-70
2023/10/09 02:36:05;;;;;;;1999.90;999.90;;;14.10;99.90;;;;;;5033682;28;20072;-71
2023/10/09 02:38:37;;;;;;;1999.90;999.90;;;14.20;99.90;;;;;;5049516;28;20397;-71
2023/10/09 02:41:20;;;;;;;1999.90;999.90;;;14.10;99.90;;;;;;5053064;28;20056;-71
2023/10/09 02:43:47;;;;;;;1999.90;999.90;;;14.10;99.90;;;;;;5051568;28;20132;-71
2023/10/09 02:46:18;;;;;;;1999.90;999.90;;;14.10;99.90;;;;;;5050171;28;20045;-71
2023/10/09 02:48:50;;;;;;;1999.90;999.90;;;14.10;99.90;;;;;;5048775;28;20091;-70
2023/10/09 02:51:47;;;;;;;1999.90;999.90;;;14.10;99.90;;;;;;5050367;28;20148;-71
2023/10/09 02:54:18;;;;;;;1999.90;999.90;;;14.20;99.90;;;;;;5051951;28;20056;-70
2023/10/09 02:56:48;;;;;;;1999.90;999.90;;;14.20;99.90;;;;;;5037088;28;20049;-71
2023/10/09 02:59:14;;;;;;;1999.90;999.90;;;14.20;99.90;;;;;;5048526;28;20057;-71
2023/10/09 03:01:40;;;;;;;1999.90;999.90;;;14.30;99.90;;;;;;5033306;28;20143;-71
2023/10/09 03:04:10;;;;;;;1999.90;999.90;;;14.20;99.90;;;;;;5066155;28;20055;-69
2023/10/09 03:06:38;;;;;;;1999.90;999.90;;;14.20;99.90;;;;;;5048998;28;20424;-70
2023/10/09 03:09:16;;;;;;;1999.90;999.90;;;14.20;99.90;;;;;;5053797;28;20036;-71
2023/10/09 03:11:48;;;;;;;1999.90;999.90;;;14.30;99.90;;;;;;5045762;28;20045;-70
2023/10/09 03:14:14;;;;;;;1999.90;999.90;;;14.30;99.90;;;;;;5049653;28;20383;-71
2023/10/09 03:16:41;;;;;;;1999.90;999.90;;;14.30;99.90;;;;;;5048536;28;20501;-71
2023/10/09 03:19:07;;;;;;;1999.90;999.90;;;14.30;99.90;;;;;;5044796;28;20056;-71
2023/10/09 03:21:32;;;;;;;1999.90;999.90;;;14.40;99.90;;;;;;5058840;28;20044;-71
2023/10/09 03:23:58;;;;;;;1999.90;999.90;;;14.40;99.90;;;;;;5053562;28;20482;-71
2023/10/09 03:26:25;;;;;;;1999.90;999.90;;;14.50;99.90;;;;;;5049349;28;20037;-70
2023/10/09 03:28:52;;;;;;;1999.90;999.90;;;14.50;99.90;;;;;;5047814;28;20595;-71
2023/10/09 03:31:18;;;;;;;1999.90;999.90;;;14.60;99.90;;;;;;5066168;28;20044;-70
2023/10/09 03:33:44;;;;;;;1999.90;999.90;;;14.60;99.90;;;;;;5050105;28;20037;-71
2023/10/09 03:36:09;;;;;;;1999.90;999.90;;;14.70;99.90;;;;;;5049333;28;20049;-71
2023/10/09 03:38:39;;;;;;;1999.90;999.90;;;14.80;99.90;;;;;;5053072;28;20114;-70
2023/10/09 03:41:12;;;;;;;1999.90;999.90;;;14.80;99.90;;;;;;5047596;28;20049;-70
2023/10/09 03:43:41;;;;;;;1999.90;999.90;;;14.90;99.90;;;;;;5048826;28;20045;-71
2023/10/09 03:46:14;;;;;;;1999.90;999.90;;;15.00;99.90;;;;;;5028076;28;20038;-71
2023/10/09 03:48:43;;;;;;;1999.90;999.90;;;15.10;99.90;;;;;;5031982;28;20076;-71
2023/10/09 03:51:09;;;;;;;1999.90;999.90;;;15.20;99.90;;;;;;5055912;28;20044;-71
2023/10/09 03:53:42;;;;;;;1999.90;999.90;;;15.20;99.90;;;;;;5031851;28;20123;-70
2023/10/09 03:56:12;;;;;;;1999.90;999.90;;;15.30;99.90;;;;;;5047966;28;20124;-72
2023/10/09 03:58:45;;;;;;;1999.90;999.90;;;15.30;99.90;;;;;;5048812;28;20063;-70
2023/10/09 04:03:47;;;;;;;1999.90;999.90;;;15.40;99.90;;;;;;5030165;28;20661;-71
2023/10/09 04:06:13;;;;;;;1999.90;999.90;;;15.50;99.90;;;;;;5033140;28;20037;-71
2023/10/09 04:08:46;;;;;;;1999.90;999.90;;;15.50;99.90;;;;;;5033624;28;20065;-71
2023/10/09 04:11:16;;;;;;;1999.90;999.90;;;15.50;99.90;;;;;;5022416;28;20055;-72
2023/10/09 04:13:49;;;;;;;1999.90;999.90;;;15.50;99.90;;;;;;5041928;28;20053;-71
2023/10/09 04:18:59;;;;;;;1999.90;999.90;;;15.50;99.90;;;;;;5041556;28;20045;-71
2023/10/09 04:21:36;;;;;;;1999.90;999.90;;;15.60;99.90;;;;;;5045239;28;20045;-70
2023/10/09 04:24:22;;;;;;;1999.90;999.90;;;15.60;99.90;;;;;;5055546;28;20519;-71
2023/10/09 04:26:55;;;;;;;1999.90;999.90;;;15.60;99.90;;;;;;5045681;28;20495;-71
2023/10/09 04:29:28;;;;;;;1999.90;999.90;;;15.50;99.90;;;;;;5062440;28;20041;-70
2023/10/09 04:32:00;;;;;;;1999.90;999.90;;;15.60;99.90;;;;;;5044977;28;20045;-71
2023/10/09 04:34:34;;;;;;;1999.90;999.90;;;15.50;99.90;;;;;;5045723;28;20052;-71
2023/10/09 04:37:00;;;;;;;1999.90;999.90;;;15.60;99.90;;;;;;5024367;28;20041;-71
2023/10/09 04:47:36;;;;;;;1999.90;999.90;;;15.60;99.90;;;;;;5037777;28;20041;-71
2023/10/09 04:50:11;;;;;;;1999.90;999.90;;;15.60;99.90;;;;;;5037646;28;20045;-70
2023/10/09 04:57:48;;;;;;;1999.90;999.90;;;15.60;99.90;;;;;;5039617;28;20099;-71
2023/10/09 05:02:56;;;;;;;1999.90;999.90;;;15.60;99.90;;;;;;5034104;28;20060;-71
2023/10/09 05:08:22;;;;;;;;;;;15.60;99.90;;;;;;5036079;28;20085;-71
2023/10/09 05:11:05;;;;;;;1999.90;999.90;;;15.70;99.90;;;;;;5053962;28;19924;-70
2023/10/09 05:16:13;;;;;;;;;;;15.70;99.90;;;;;;5034360;28;20127;-70
2023/10/09 05:18:41;;;;;;;1999.90;999.90;;;15.70;99.90;;;;;;5038579;28;19921;-70
2023/10/09 05:31:57;;;;;;;1999.90;999.90;;;15.80;99.90;;;;;;5030108;28;20405;-70
2023/10/09 05:34:36;;;;;;;1999.90;999.90;;;15.80;99.90;;;;;;5029923;28;20279;-70
2023/10/09 05:37:24;;;;;;;1999.90;999.90;;;15.80;99.90;;;;;;5044323;28;20065;-70
2023/10/09 05:40:22;;;;;;;1999.90;999.90;;;15.90;99.90;;;;;;5046881;28;20104;-70
2023/10/09 05:42:57;;;;;;;;;;;15.90;99.90;;;;;;5033124;28;20495;-70
2023/10/09 05:48:48;;;;;;;1999.90;999.90;;;15.90;99.90;;;;;;5035855;28;20037;-70
2023/10/09 06:07:14;;;;;;;1999.90;999.90;;;16.10;99.90;;;;;;5029567;28;20636;-70
2023/10/09 06:10:10;;;;;;;1999.90;999.90;;;16.10;99.90;;;;;;5034893;28;20049;-70
2023/10/09 06:17:44;;;;;;;1999.90;999.90;;;16.20;99.90;;;;;;5035187;28;20101;-70
2023/10/09 06:20:57;;;;;;;1999.90;999.90;;;16.20;99.90;;;;;;5052910;28;20033;-70
2023/10/09 06:22:58;;;;;;;1999.90;999.90;;;16.20;99.90;;;;;;5060628;28;20429;-70
2023/10/09 06:25:32;;;;;;;1999.90;999.90;;;16.10;99.90;;;;;;5056097;28;20063;-69
2023/10/09 06:27:58;;;;;;;1999.90;999.90;;;16.10;99.90;;;;;;5034405;28;20431;-70
2023/10/09 06:30:25;;;;;;;1999.90;999.90;;;16.20;99.90;;;;;;5035596;28;20034;-70
2023/10/09 06:32:57;;;;;;;1999.90;999.90;;;16.20;99.90;;;;;;5031831;28;20045;-70
2023/10/09 06:35:32;;;;;;;1999.90;999.90;;;16.20;99.90;;;;;;5061436;28;20041;-70
2023/10/09 06:43:42;;;;;;;1999.90;999.90;;;16.20;99.90;;;;;;5041337;28;20049;-69
2023/10/09 06:48:44;;;;;;;1999.90;999.90;;;16.20;99.90;;;;;;5035508;28;20053;-70
2023/10/09 06:58:55;;;;;;;1999.90;999.90;;;16.10;99.90;;;;;;5045504;28;20147;-70
2023/10/09 07:04:18;;;;;;;1999.90;999.90;;;16.20;99.90;;;;;;5044594;28;20080;-69
2023/10/09 07:06:53;;;;;;;1999.90;999.90;;;16.10;99.90;;;;;;5047385;28;20045;-70
2023/10/09 07:09:19;;;;;;;1999.90;999.90;;;16.10;99.90;;;;;;5066451;28;20041;-71
2023/10/09 07:17:26;;;;;;;1999.90;999.90;;;16.10;99.90;;;;;;5052807;28;20401;-70
2023/10/09 07:25:13;;;;;;;1999.90;999.90;;;16.10;99.90;;;;;;5050148;28;20044;-71
2023/10/09 07:27:45;;;;;;;1999.90;999.90;;;16.10;99.90;;;;;;5047481;28;20516;-71
2023/10/09 07:38:29;;;;;;;1999.90;999.90;;;16.20;99.90;;;;;;5059009;28;20467;-71
2023/10/09 07:40:59;;;;;;;1999.90;999.90;;;16.20;99.90;;;;;;5032331;28;20418;-70
2023/10/09 07:43:39;;;;;;;1999.90;999.90;;;16.10;99.90;;;;;;5032544;28;20048;-70
2023/10/09 07:48:57;;;;;;;1999.90;999.90;;;16.20;99.90;;;;;;5050306;28;20041;-70
2023/10/09 07:51:30;;;;;;;1999.90;999.90;;;16.20;99.90;;;;;;5049246;28;20070;-70
2023/10/09 07:54:06;;;;;;;1999.90;999.90;;;16.20;99.90;;;;;;5057667;28;20048;-71
2023/10/09 07:56:45;;;;;;;1999.90;999.90;;;16.20;99.90;;;;;;5035425;28;20790;-71
2023/10/09 07:59:18;;;;;;;1999.90;999.90;;;16.20;99.90;;;;;;5047720;28;20084;-71
2023/10/09 08:01:53;;;;;;;1999.90;999.90;;;16.30;99.90;;;;;;5032295;28;20045;-70
2023/10/09 08:04:39;;;;;;;1999.90;999.90;;;16.30;99.90;;;;;;5040976;28;20079;-70
2023/10/09 08:07:55;;;;;;;1999.90;999.90;;;16.20;99.90;;;;;;5044906;28;20045;-70
2023/10/09 08:12:57;;;;;;;1999.90;999.90;;;16.30;99.90;;;;;;5027971;28;20048;-70
2023/10/09 08:15:51;;;;;;;1999.90;999.90;;;16.30;99.90;;;;;;5047578;28;20220;-71
2023/10/09 08:18:27;;;;;;;1999.90;999.90;;;16.40;99.90;;;;;;5042997;28;20585;-71
2023/10/09 08:23:28;;;;;;;1999.90;999.90;;;16.50;99.90;;;;;;5047032;28;20110;-71
2023/10/09 08:26:13;;;;;;;1999.90;999.90;;;16.50;99.90;;;;;;5048846;28;20036;-71
2023/10/09 08:28:43;;;;;;;1999.90;999.90;;;16.50;99.90;;;;;;5053922;28;20045;-71
2023/10/09 08:31:19;;;;;;;1999.90;999.90;;;16.50;99.90;;;;;;5043643;28;20037;-72
2023/10/09 08:33:56;;;;;;;1999.90;999.90;;;16.40;99.90;;;;;;5061904;28;20116;-71
2023/10/09 08:36:26;;;;;;;1999.90;999.90;;;16.40;99.90;;;;;;5048597;28;20047;-71
2023/10/09 08:38:58;;;;;;;1999.90;999.90;;;16.40;99.90;;;;;;5046988;28;20048;-71
2023/10/09 08:41:29;;;;;;;1999.90;999.90;;;16.40;99.90;;;;;;5028916;28;20057;-72
2023/10/09 08:43:56;;;;;;;1999.90;999.90;;;16.30;99.90;;;;;;5022209;28;20041;-72
2023/10/09 08:46:27;;;;;;;1999.90;999.90;;;16.30;99.90;;;;;;5051946;28;20045;-72
2023/10/09 08:49:05;;;;;;;1999.90;999.90;;;16.30;99.90;;;;;;5055852;28;20063;-71
2023/10/09 08:51:32;;;;;;;1999.90;999.90;;;16.30;99.90;;;;;;5028312;28;20038;-72
2023/10/09 08:53:58;;;;;;;1999.90;999.90;;;16.30;99.90;;;;;;5036427;28;20091;-71
2023/10/09 08:56:23;;;;;;;1999.90;999.90;;;16.30;99.90;;;;;;5033420;28;20555;-72
2023/10/09 08:58:57;;;;;;;1999.90;999.90;;;16.30;99.90;;;;;;5050475;28;20061;-72
2023/10/09 09:01:24;;;;;;;1999.90;999.90;;;16.40;99.90;;;;;;5032518;28;20095;-72
2023/10/09 09:03:50;;;;;;;1999.90;999.90;;;16.40;99.90;;;;;;5052970;28;20469;-73
2023/10/09 09:06:19;;;;;;;1999.90;999.90;;;16.50;99.90;;;;;;5027760;28;20127;-72
2023/10/09 09:08:46;;;;;;;1999.90;999.90;;;16.60;99.90;;;;;;5032656;28;20037;-72
2023/10/09 09:11:22;;;;;;;1999.90;999.90;;;16.60;99.90;;;;;;5041374;28;20044;-72
2023/10/09 09:14:18;;;;;;;1999.90;999.90;;;16.60;99.90;;;;;;5043938;28;20402;-72
2023/10/09 09:16:48;;;;;;;1999.90;999.90;;;16.60;99.90;;;;;;5034773;28;20405;-72
2023/10/09 09:19:17;;;;;;;1999.90;999.90;;;16.70;99.90;;;;;;5042294;28;20045;-73
2023/10/09 09:22:11;;;;;;;1999.90;999.90;;;16.70;99.90;;;;;;5042618;28;20075;-72
2023/10/09 09:24:37;;;;;;;1999.90;999.90;;;16.70;99.90;;;;;;5043793;28;20044;-72
2023/10/09 09:27:12;;;;;;;1999.90;999.90;;;16.60;99.90;;;;;;5043699;28;20033;-72
2023/10/09 09:29:38;;;;;;;1999.90;999.90;;;16.70;99.90;;;;;;5027118;28;20037;-73
2023/10/09 09:32:39;;;;;;;1999.90;999.90;;;16.80;99.90;;;;;;5027424;28;20087;-72
2023/10/09 09:34:59;;;;;;;1999.90;999.90;;;16.80;99.90;;;;;;5033640;28;20163;-72
2023/10/09 09:37:30;;;;;;;1999.90;999.90;;;16.80;99.90;;;;;;5046313;28;20056;-72
2023/10/09 09:40:00;;;;;;;1999.90;999.90;;;16.80;99.90;;;;;;5044191;28;20278;-73
2023/10/09 09:42:32;;;;;;;1999.90;999.90;;;16.80;99.90;;;;;;5060187;28;20130;-72
2023/10/09 09:45:00;;;;;;;1999.90;999.90;;;16.90;99.90;;;;;;5026339;28;20052;-72
2023/10/09 09:47:26;;;;;;;1999.90;999.90;;;16.90;99.90;;;;;;5044497;28;20071;-73
2023/10/09 09:49:59;;;;;;;1999.90;999.90;;;17.00;99.90;;;;;;5033654;28;20033;-72
2023/10/09 09:52:27;;;;;;;1999.90;999.90;;;17.00;99.90;;;;;;5040590;28;20045;-72
2023/10/09 09:54:53;;;;;;;1999.90;999.90;;;17.00;99.90;;;;;;5041440;28;20053;-73
2023/10/09 09:57:25;;;;;;;1999.90;999.90;;;17.10;99.90;;;;;;5024513;28;20052;-72
2023/10/09 09:59:55;;;;;;;1999.90;999.90;;;17.10;99.90;;;;;;5041149;28;20116;-72
2023/10/09 10:02:37;;;;;;;1999.90;999.90;;;17.10;99.90;;;;;;5022115;28;20041;-73
2023/10/09 10:05:07;;;;;;;1999.90;999.90;;;17.10;99.90;;;;;;5043797;28;20158;-73
2023/10/09 10:07:42;;;;;;;1999.90;999.90;;;17.10;99.90;;;;;;5047650;28;20037;-74
2023/10/09 10:10:33;;;;;;;1999.90;999.90;;;17.10;99.90;;;;;;5045446;28;20041;-74
2023/10/09 10:13:01;;;;;;;1999.90;999.90;;;17.10;99.90;;;;;;5047145;28;20045;-73
2023/10/09 10:15:56;;;;;;;1999.90;999.90;;;17.10;99.90;;;;;;5046062;28;20044;-72
2023/10/09 10:18:23;;;;;;;1999.90;999.90;;;17.10;99.90;;;;;;5039369;28;20531;-73
2023/10/09 10:21:34;;;;;;;1999.90;999.90;;;17.10;99.90;;;;;;5050038;28;20049;-73
2023/10/09 10:24:06;;;;;;;1999.90;999.90;;;17.10;99.90;;;;;;5030650;28;20139;-72
2023/10/09 10:26:35;;;;;;;1999.90;999.90;;;17.10;99.90;;;;;;5049497;28;20032;-72
2023/10/09 10:29:23;;;;;;;1999.90;999.90;;;17.10;99.90;;;;;;5050366;28;20120;-73
2023/10/09 10:31:52;;;;;;;1999.90;999.90;;;17.10;99.90;;;;;;5042185;28;20049;-73
2023/10/09 10:34:23;;;;;;;1999.90;999.90;;;17.10;99.90;;;;;;5049527;28;20045;-73
2023/10/09 10:36:52;;;;;;;1999.90;999.90;;;17.10;99.90;;;;;;5036368;28;20040;-73
2023/10/09 10:39:21;;;;;;;1999.90;999.90;;;17.00;99.90;;;;;;5050296;28;20090;-73
2023/10/09 10:41:55;;;;;;;1999.90;999.90;;;17.00;99.90;;;;;;5049938;28;20048;-72
2023/10/09 10:44:36;;;;;;;1999.90;999.90;;;17.00;99.90;;;;;;5048984;28;20041;-72
2023/10/09 10:47:04;;;;;;;1999.90;999.90;;;17.00;99.90;;;;;;5050465;28;20409;-72
2023/10/09 10:49:36;;;;;;;1999.90;999.90;;;17.00;99.90;;;;;;5049676;28;20095;-72
2023/10/09 10:52:17;;;;;;;1999.90;999.90;;;17.00;99.90;;;;;;5030357;28;20041;-72
2023/10/09 10:57:36;;;;;;;1999.90;999.90;;;17.10;99.90;;;;;;5037736;28;20505;-72
2023/10/09 11:01:00;;;;;;;1999.90;999.90;;;17.10;99.90;;;;;;5029996;28;20036;-72
2023/10/09 11:03:13;;;;;;;1999.90;999.90;;;17.10;99.90;;;;;;5042536;28;20053;-72
2023/10/09 11:05:41;;;;;;;1999.90;999.90;;;17.00;99.90;;;;;;5028094;28;20166;-72
2023/10/09 11:08:10;;;;;;;1999.90;999.90;;;17.00;99.90;;;;;;5042337;28;20091;-71
2023/10/09 11:10:49;;;;;;;1999.90;999.90;;;17.00;99.90;;;;;;5037195;28;20068;-74
2023/10/09 11:13:30;;;;;;;1999.90;999.90;;;17.00;99.90;;;;;;5045385;28;20053;-72
2023/10/09 11:16:14;;;;;;;1999.90;999.90;;;17.00;99.90;;;;;;5028741;28;20049;-73
2023/10/09 11:18:45;;;;;;;1999.90;999.90;;;17.00;99.90;;;;;;5030529;28;20543;-73
2023/10/09 11:26:28;;;;;;;1999.90;999.90;;;17.00;99.90;;;;;;5050333;28;20044;-73
2023/10/09 11:29:52;;;;;;;1999.90;999.90;;;17.00;99.90;;;;;;5049064;28;20048;-72
2023/10/09 11:32:19;;;;;;;1999.90;999.90;;;17.00;99.90;;;;;;5048944;28;20128;-74
2023/10/09 11:35:08;;;;;;;1999.90;999.90;;;17.00;99.90;;;;;;5029303;28;20048;-72
2023/10/09 11:37:42;;;;;;;1999.90;999.90;;;17.10;99.90;;;;;;5032502;28;20041;-72
2023/10/09 11:43:15;;;;;;;1999.90;999.90;;;17.00;99.90;;;;;;5031962;28;20056;-73
2023/10/09 11:45:54;;;;;;;1999.90;999.90;;;17.00;99.90;;;;;;5037443;28;20045;-73
2023/10/09 11:48:49;;;;;;;1999.90;999.90;;;17.00;99.90;;;;;;5045535;28;20068;-73
2023/10/09 11:51:18;;;;;;;1999.90;999.90;;;17.20;99.90;;;;;;5031111;28;20045;-73
2023/10/09 11:53:54;;;;;;;1999.90;999.90;;;17.20;99.90;;;;;;5027124;28;20044;-72
2023/10/09 11:56:22;;;;;;;1999.90;999.90;;;17.20;99.90;;;;;;5057371;28;20076;-72
2023/10/09 11:58:50;;;;;;;1999.90;999.90;;;17.30;99.90;;;;;;5039567;28;20072;-73
2023/10/09 12:01:22;;;;;;;1999.90;999.90;;;17.40;99.90;;;;;;5045115;28;20044;-72
2023/10/09 12:03:49;;;;;;;1999.90;999.90;;;17.40;99.90;;;;;;5028918;28;20412;-73
2023/10/09 12:06:18;;;;;;;1999.90;999.90;;;17.40;99.90;;;;;;5044472;28;20480;-72
2023/10/09 12:08:48;;;;;;;1999.90;999.90;;;17.40;99.90;;;;;;5042131;28;20590;-72
2023/10/09 12:11:28;;;;;;;1999.90;999.90;;;17.40;99.90;;;;;;5023259;28;20409;-72
2023/10/09 12:14:00;;;;;;;1999.90;999.90;;;17.40;99.90;;;;;;5026252;28;20036;-72
2023/10/09 12:16:29;;;;;;;;;;;17.50;99.90;;;;;;5042213;28;20044;-72
2023/10/09 12:18:55;;;;;;;1999.90;999.90;;;17.60;99.90;;;;;;5022373;28;20229;-71
2023/10/09 12:21:23;;;;;;;1999.90;999.90;;;17.50;99.90;;;;;;5028388;28;20530;-72
2023/10/09 12:23:49;;;;;;;1999.90;999.90;;;17.50;99.90;;;;;;5044361;28;20052;-72
2023/10/09 12:26:15;;;;;;;1999.90;999.90;;;17.50;99.90;;;;;;5030348;28;20044;-73
2023/10/09 12:28:45;;;;;;;1999.90;999.90;;;17.40;99.90;;;;;;5051268;28;20473;-72
2023/10/09 12:31:19;;;;;;;1999.90;999.90;;;17.40;99.90;;;;;;5044852;28;20037;-72
2023/10/09 12:33:46;;;;;;;1999.90;999.90;;;17.40;99.90;;;;;;5015774;28;20080;-72
2023/10/09 12:36:19;;;;;;;1999.90;999.90;;;17.50;99.90;;;;;;5027330;28;20049;-72
2023/10/09 12:38:50;;;;;;;1999.90;999.90;;;17.50;99.90;;;;;;5031753;28;20053;-72
2023/10/09 12:41:26;;;;;;;1999.90;999.90;;;17.50;99.90;;;;;;5025824;28;20092;-72
2023/10/09 12:43:52;;;;;;;1999.90;999.90;;;17.50;99.90;;;;;;5052786;28;20452;-73
2023/10/09 12:46:25;;;;;;;1999.90;999.90;;;17.60;99.90;;;;;;5033946;28;20037;-72
2023/10/09 12:48:54;;;;;;;1999.90;999.90;;;17.60;99.90;;;;;;5019702;28;20049;-72
2023/10/09 12:51:20;;;;;;;1999.90;999.90;;;17.70;99.90;;;;;;5028804;28;20041;-73
2023/10/09 12:53:50;;;;;;;1999.90;999.90;;;17.80;99.90;;;;;;5048763;28;20033;-73
2023/10/09 12:56:18;;;;;;;1999.90;999.90;;;17.70;99.90;;;;;;5035316;28;20406;-73
2023/10/09 12:58:52;;;;;;;1999.90;999.90;;;17.80;99.90;;;;;;5044213;28;20060;-72
2023/10/09 13:01:20;;;;;;;1999.90;999.90;;;17.80;99.90;;;;;;5031060;28;20654;-74
2023/10/09 13:03:49;;;;;;;1999.90;999.90;;;17.90;99.90;;;;;;5025476;28;20053;-73
2023/10/09 13:06:15;;;;;;;1999.90;999.90;;;18.00;99.90;;;;;;5036063;28;20056;-72
2023/10/09 13:08:42;;;;;;;1999.90;999.90;;;18.00;99.90;;;;;;5027947;28;20052;-73
2023/10/09 13:11:11;;;;;;;1999.90;999.90;;;18.00;99.90;;;;;;5018609;28;20434;-74
2023/10/09 13:13:42;;;;;;;1999.90;999.90;;;18.00;99.90;;;;;;5033346;28;20040;-72
2023/10/09 13:16:24;;;;;;;1999.90;999.90;;;17.90;99.90;;;;;;5052753;28;20496;-72
2023/10/09 13:18:51;;;;;;;1999.90;999.90;;;17.80;99.90;;;;;;5020749;28;20119;-73
2023/10/09 13:21:21;;;;;;;1999.90;999.90;;;17.80;99.90;;;;;;5043367;28;20480;-73
2023/10/09 13:23:49;;;;;;;1999.90;999.90;;;17.80;99.90;;;;;;5043450;28;20041;-73
2023/10/09 13:26:23;;;;;;;1999.90;999.90;;;17.70;99.90;;;;;;5028071;28;20413;-72
2023/10/09 13:28:50;;;;;;;1999.90;999.90;;;17.70;99.90;;;;;;5035954;28;20118;-74
2023/10/09 13:31:17;;;;;;;1999.90;999.90;;;17.70;99.90;;;;;;5043799;28;20037;-73
2023/10/09 13:33:43;;;;;;;1999.90;999.90;;;17.70;99.90;;;;;;5029014;28;20401;-73
2023/10/09 13:36:26;;;;;;;1999.90;999.90;;;17.80;99.90;;;;;;5026317;28;20438;-74
2023/10/09 13:38:53;;;;;;;1999.90;999.90;;;17.80;99.90;;;;;;5035167;28;20525;-73
2023/10/09 13:41:19;;;;;;;1999.90;999.90;;;17.80;99.90;;;;;;5032498;28;20541;-73
2023/10/09 13:43:44;;;;;;;1999.90;999.90;;;17.80;99.90;;;;;;5034273;28;20041;-73
2023/10/09 13:46:17;;;;;;;1999.90;999.90;;;17.80;99.90;;;;;;5039719;28;20111;-72
2023/10/09 13:48:43;;;;;;;1999.90;999.90;;;17.80;99.90;;;;;;5038247;28;20409;-72
2023/10/09 13:51:23;;;;;;;1999.90;999.90;;;17.90;99.90;;;;;;5051595;28;20048;-72
2023/10/09 13:53:49;;;;;;;1999.90;999.90;;;17.90;99.90;;;;;;5045384;28;20046;-72
2023/10/09 13:56:19;;;;;;;1999.90;999.90;;;17.90;99.90;;;;;;5045025;28;20509;-72
2023/10/09 13:58:46;;;;;;;1999.90;999.90;;;17.90;99.90;;;;;;5032503;28;20052;-72
2023/10/09 14:01:20;;;;;;;1999.90;999.90;;;17.80;99.90;;;;;;5047755;28;20466;-72
2023/10/09 14:03:49;;;;;;;1999.90;999.90;;;17.70;99.90;;;;;;5033235;28;20386;-72
2023/10/09 14:06:19;;;;;;;1999.90;999.90;;;17.60;99.90;;;;;;5047560;28;20114;-72
2023/10/09 14:08:45;;;;;;;1999.90;999.90;;;17.60;99.90;;;;;;5051633;28;20474;-72
2023/10/09 14:11:14;;;;;;;1999.90;999.90;;;17.50;99.90;;;;;;5036866;28;20100;-72
2023/10/09 14:13:40;;;;;;;1999.90;999.90;;;17.50;99.90;;;;;;5048155;28;20038;-73
2023/10/09 14:16:06;;;;;;;1999.90;999.90;;;17.50;99.90;;;;;;5032875;28;20513;-73
2023/10/09 14:18:32;;;;;;;1999.90;999.90;;;17.40;99.90;;;;;;5033367;28;20049;-73
2023/10/09 14:21:06;;;;;;;1999.90;999.90;;;17.50;99.90;;;;;;5044033;28;20048;-73
2023/10/09 14:23:34;;;;;;;1999.90;999.90;;;17.40;99.90;;;;;;5038050;28;20387;-73
2023/10/09 14:26:01;;;;;;;1999.90;999.90;;;17.40;99.90;;;;;;5056729;28;20080;-72
2023/10/09 14:28:28;;;;;;;1999.90;999.90;;;17.40;99.90;;;;;;5038244;28;20494;-72
2023/10/09 14:30:59;;;;;;;1999.90;999.90;;;17.30;99.90;;;;;;5031486;28;20525;-72
2023/10/09 14:33:27;;;;;;;1999.90;999.90;;;17.30;99.90;;;;;;5039533;28;20049;-73
2023/10/09 14:35:54;;;;;;;1999.90;999.90;;;17.30;99.90;;;;;;5017853;28;20049;-73
2023/10/09 14:38:26;;;;;;;1999.90;999.90;;;17.30;99.90;;;;;;5051797;28;20088;-72